Terminal Aerodrome Forecast
Issued by NWS Green Bay, WI

Home | Current Version | Previous Version | Text Only | Print | Product List | Glossary Off
Versions: 1 2 3 4 5 6 7 8 9 10 11 12 13 14 15 16 17 18 19

000
FTUS43 KGRB 260520
TAFGRB
TAF
KGRB 260520Z 2606/2706 02015G23KT P6SM SCT004 OVC007
      TEMPO 2606/2609 BKN004
     FM260900 02017G26KT P6SM OVC004
     FM261500 04016G25KT P6SM BKN008 OVC012
     FM261700 04015G23KT P6SM BKN014 OVC022
     FM262100 04013G19KT P6SM BKN025 BKN035
     FM270000 04010KT P6SM SCT035 SCT050=

USA.gov is the U.S. government's official web portal to all federal, state and local government web resources and services.